メインページ
METAR-TAF:

METAR-TAF

空港 :

フィウミチーノ空港

ローマ・フィウミチーノ, イタリア

緯度: 41-48N, 経度: 012-14E, 海抜: 2m

現時点の気象観測

当レポートは16分前の07:20(UTC)に作成
北東の風 7kt
気温 25°C
湿度 61%
気圧 1016 hPa
視程10km以上
1,500メートル以下は雲なし、積乱雲なし

METAR: LIRF 190720Z 04007KT CAVOK 25/17 Q1016 NOSIG

時間: 09:36 (07:36 UTC)

予報

当レポートは2時間36分前の05:00(UTC)に作成
予報は19日の 06時(UTC)から 20日の 12時(UTC)まで有効
変向風 5kt
視程10km以上
高度3000ftの雲はほとんどない
19日の 08時(UTC)から 19日の 10時(UTC)まで徐々に
西の風 12kt
19日の 12時(UTC)から 19日の 16時(UTC)まで一時的に
視程: 4000m
激しい雷雨, 雨
19日の 17時(UTC)から 19日の 19時(UTC)まで徐々に
変向風 5kt
20日の 09時(UTC)から 20日の 11時(UTC)まで徐々に
西の風 12kt

TAF: LIRF 190500Z 1906/2012 VRB05KT 9999 FEW030 BECMG 1908/1910 28012KT TEMPO 1912/1916 4000 TSRA BECMG 1917/1919 VRB05KT BECMG 2009/2011 26012KT

4,000以上の空港の気象観測と天気予報(METAR報とTAF報)

利用可能な観測所は地図上に黄色い丸と赤い丸で示す。

丸の上にカーソルを重ねると観測所名を参照できる。

次にクリックすると気象観測と天気予報を参照できる。

マップの切り替え:黒色「×」印の緑ボタンをクリックして拡大、「-」印の緑ボタンをクリックして縮小、緑色の三角印をクリックして隣りの地図に切り替え


METAR-TAF: